Sunday, October 21, 2018, 12:42 PM EDT
Back to Local

KNFE, Fentress Nalf

Location: Chesapeake, VA, United States Lat: 36.7
Local Time: 12:42 PM EDT (16:42 GMT) Lon: -76.133
Time Zone: US/Eastern Elev: 13 ft

Show me the last for .
Show Decoded

2018-10-21 11:56 METAR KNFE 211556Z AUTO 33011G25KT 10SM CLR 15/00 A3009 RMK AO2 PK WND
                 34027/1516 SLP191 T01500000 =
2018-10-21 10:56 METAR KNFE 211456Z AUTO 34012G29KT 10SM CLR 14/01 A3008 RMK AO2 PK WND
                 35032/1437 SLP186 T01440011 51029 =
2018-10-21 09:56 METAR KNFE 211356Z AUTO 33017G33KT 10SM CLR 13/01 A3005 RMK AO2 PK WND
                 35033/1350 SLP177 T01280011 =
2018-10-21 08:56 METAR KNFE 211256Z AUTO 33013G23KT 290V360 10SM BKN045 12/01 A3003 RMK AO2 PK
                 WND 34028/1230 SLP171 T01170011 =
2018-10-21 07:56 METAR KNFE 211156Z AUTO 31011G20KT 260V360 10SM BKN048 12/01 A2999 RMK AO2
                 SLP158 70006 T01170006 10156 20106 51044 =
2018-10-21 06:56 METAR KNFE 211056Z AUTO 31008G18KT 10SM CLR 11/00 A2995 RMK AO2 PK WND
                 29028/1005 SLP142 T01110000 =
2018-10-21 05:56 METAR KNFE 210956Z AUTO 30012G22KT 10SM FEW090 12/01 A2991 RMK AO2 PK WND
                 29030/0917 SLP131 T01220011 =
2018-10-21 04:56 METAR KNFE 210856Z AUTO 32013G18KT 10SM FEW080 SCT090 13/03 A2986 RMK AO2 SLP114
                 T01330033 51038 =
2018-10-21 03:56 METAR KNFE 210756Z AUTO 35016G24KT 290V020 10SM SCT035 OVC100 14/06 A2983 RMK
                 AO2 PK WND 36026/0745 SLP104 T01390061 =
2018-10-21 02:56 METAR KNFE 210656Z AUTO 31010G22KT 10SM CLR 16/08 A2978 RMK AO2 SLP087 T01560078
                 =
2018-10-21 01:56 METAR KNFE 210556Z AUTO 31006KT 10SM CLR 16/10 A2975 RMK AO2 SLP075 T01560100
                 10172 20156 53000 =
2018-10-21 00:56 METAR KNFE 210456Z AUTO 00000KT 10SM OVC080 17/14 A2974 RMK AO2 SLP072 T01670144
                 402170156 =
2018-10-20 23:56 METAR KNFE 210356Z AUTO 00000KT 10SM SCT055 BKN070 17/16 A2974 RMK AO2 SLP074
                 T01720156 =
2018-10-20 22:56 METAR KNFE 210256Z AUTO 00000KT 10SM SCT049 17/16 A2975 RMK AO2 SLP075 T01720156
                 55000 =
2018-10-20 22:05 METAR KNFE 210205Z AUTO VRB03KT 10SM FEW003 17/15 A2974 RMK AO2 T01670150 =
2018-10-20 21:56 METAR KNFE 210156Z AUTO VRB03KT 10SM CLR 17/15 A2974 RMK AO2 SLP074 T01670150 =
2018-10-20 20:56 METAR KNFE 210056Z AUTO 00000KT 10SM CLR 16/14 A2974 RMK AO2 SLP073 T01610144 =
2018-10-20 19:56 METAR KNFE 202356Z AUTO 00000KT 10SM CLR 17/15 A2975 RMK AO2 SLP075 60001
                 T01720150 10206 20172 53003 =
2018-10-20 18:56 METAR KNFE 202256Z AUTO 23003KT 10SM CLR 18/16 A2972 RMK AO2 SLP066 T01830156 =
2018-10-20 17:56 METAR KNFE 202156Z AUTO VRB05KT 10SM FEW020 19/16 A2974 RMK AO2 SLP071 T01940156
                 =
2018-10-20 16:56 METAR KNFE 202056Z AUTO 24006KT 10SM CLR 21/17 A2974 RMK AO2 RAE26 SLP072 P0001
                 60001 T02060167 56023 =
2018-10-20 15:56 METAR KNFE 201956Z AUTO VRB04KT 10SM -RA FEW013 SCT050 OVC110 21/17 A2974 RMK
                 AO2 RAB09E18B44 PRESFR SLP073 P0000 T02060172 =
2018-10-20 15:44 METAR KNFE 201944Z AUTO VRB04KT 10SM -RA SCT015 SCT055 OVC110 21/17 A2976 RMK
                 AO2 RAB09E18B44 P0000 T02060172 =
2018-10-20 14:56 METAR KNFE 201856Z AUTO VRB03KT 10SM SCT015 BKN023 BKN055 20/17 A2979 RMK AO2
                 RAE43 SLP088 P0000 T02000172 =
2018-10-20 14:42 METAR KNFE 201842Z AUTO VRB03KT 10SM -RA FEW012 BKN025 BKN070 20/17 A2978 RMK
                 AO2 P0000 T02000172 =
2018-10-20 13:56 METAR KNFE 201756Z AUTO VRB05KT 6SM -RA BKN070 OVC085 20/17 A2981 RMK AO2
                 RAE1658B18 SLP095 P0003 60005 T02000172 10217 20194 58021 =
2018-10-20 12:56 METAR KNFE 201656Z AUTO 10SM -RA FEW018 OVC070 21/17 A2984 RMK AO2 SLP106 P0001
                 T02060167 =

Support USWX by starting your Amazon purchase here.